Hlavní strana
METAR-TAF:

METAR-TAF

Letiště :

Pisa, Itálie

zeměpisná šířka: 43-41N, zeměpisná délka: 010-23E, výška: 2 m

Aktuální stav počasí

Zpráva byla vytvořena před 43 minutami, v 00:45 UTC
Východojihovýchodní vítr 1 kt
Teplota 4°C
Vlhkost vzduchu 93%
Tlak 1024 hPa
Viditelnost 10 km a více
Žádná oblačnost pod 1500 m, nevyskytují se cumulonimby.

METAR: LIRP 210045Z 12001KT CAVOK 04/03 Q1024 NOSIG

Čas: 02:28 (01:28 UTC)

Předpověď počasí

Zpráva byla vytvořena před 2 hodinami a 28 minutami, v 23:00 UTC
Předpověď platná od 21 v 00 UTC do 21 v 24 UTC
Východojihovýchodní vítr 5 kt
Viditelnost 10 km a více
Polojasno ve výšce 2000 ft
Pravděpodobnost 40% :
Dočasný
od 21 v 01 UTC do 21 v 07 UTC
Viditelnost: 3000 m
Oblačno až skoro zataženo ve výšce 1000 ft
kouřmo

TAF: LIRP 202300Z 2100/2124 11005KT 9999 SCT020 PROB40 TEMPO 2101/2107 3000 BR BKN010

Stav a předpovědi počasí z více než 4 000 letišť (zprávy METAR a TAF).

Červené a žluté tečky na mapě představují dostupné meteorologické stanice.

Když kurzor umístíte na tečku, zobrazí se název stanice.

Pak kliknutím zobrazíte stav a předpověď počasí.

Chcete-li změnit mapu, kliknutím na zelené tlačítko se znaménkem +mapu přiblížíte, kliknutím na zelené tlačítko se znaménkem – mapu oddálíte a kliknutím na zelené šipky přejdete na sousední mapy.


METAR-TAF: